sensor_id;sensor_type;location;lat;lon;timestamp;P1;durP1;ratioP1;P2;durP2;ratioP2
27025;SDS011;14565;48.626;8.978;2023-08-17T00:01:34;12.68;;;10.75;;
27025;SDS011;14565;48.626;8.978;2023-08-17T00:04:00;17.73;;;12.05;;
27025;SDS011;14565;48.626;8.978;2023-08-17T00:06:25;13.95;;;12.52;;
27025;SDS011;14565;48.626;8.978;2023-08-17T00:08:51;13.15;;;11.32;;
27025;SDS011;14565;48.626;8.978;2023-08-17T00:11:17;13.00;;;11.45;;
27025;SDS011;14565;48.626;8.978;2023-08-17T00:13:42;18.70;;;15.80;;
27025;SDS011;14565;48.626;8.978;2023-08-17T00:16:08;20.25;;;13.75;;
27025;SDS011;14565;48.626;8.978;2023-08-17T00:18:34;21.15;;;12.70;;
27025;SDS011;14565;48.626;8.978;2023-08-17T00:20:59;15.85;;;12.20;;
27025;SDS011;14565;48.626;8.978;2023-08-17T00:23:25;15.25;;;12.50;;
27025;SDS011;14565;48.626;8.978;2023-08-17T00:25:54;16.27;;;12.02;;
27025;SDS011;14565;48.626;8.978;2023-08-17T00:28:20;15.85;;;13.25;;
27025;SDS011;14565;48.626;8.978;2023-08-17T00:30:45;20.20;;;15.98;;
27025;SDS011;14565;48.626;8.978;2023-08-17T00:33:11;20.35;;;14.27;;
27025;SDS011;14565;48.626;8.978;2023-08-17T00:35:37;16.50;;;14.25;;
27025;SDS011;14565;48.626;8.978;2023-08-17T00:38:02;20.25;;;15.35;;
27025;SDS011;14565;48.626;8.978;2023-08-17T00:40:28;19.35;;;14.63;;
27025;SDS011;14565;48.626;8.978;2023-08-17T00:42:54;19.33;;;15.20;;
27025;SDS011;14565;48.626;8.978;2023-08-17T00:45:19;19.10;;;14.13;;
27025;SDS011;14565;48.626;8.978;2023-08-17T00:47:48;21.00;;;15.05;;
27025;SDS011;14565;48.626;8.978;2023-08-17T00:50:14;18.38;;;12.68;;
27025;SDS011;14565;48.626;8.978;2023-08-17T00:52:40;16.08;;;12.52;;
27025;SDS011;14565;48.626;8.978;2023-08-17T00:55:07;18.50;;;13.27;;
27025;SDS011;14565;48.626;8.978;2023-08-17T00:57:34;16.58;;;12.20;;
27025;SDS011;14565;48.626;8.978;2023-08-17T01:00:01;22.58;;;12.60;;
27025;SDS011;14565;48.626;8.978;2023-08-17T01:04:54;16.33;;;10.18;;
27025;SDS011;14565;48.626;8.978;2023-08-17T01:07:21;15.73;;;11.00;;
27025;SDS011;14565;48.626;8.978;2023-08-17T01:09:46;14.75;;;10.32;;
27025;SDS011;14565;48.626;8.978;2023-08-17T01:12:13;14.02;;;10.48;;
27025;SDS011;14565;48.626;8.978;2023-08-17T01:15:01;12.77;;;9.82;;
27025;SDS011;14565;48.626;8.978;2023-08-17T01:17:32;12.98;;;10.90;;
27025;SDS011;14565;48.626;8.978;2023-08-17T01:20:10;15.25;;;11.73;;
27025;SDS011;14565;48.626;8.978;2023-08-17T01:22:42;14.30;;;11.98;;
27025;SDS011;14565;48.626;8.978;2023-08-17T01:25:11;15.23;;;12.50;;
27025;SDS011;14565;48.626;8.978;2023-08-17T01:27:39;19.20;;;12.27;;
27025;SDS011;14565;48.626;8.978;2023-08-17T01:30:09;16.27;;;12.00;;
27025;SDS011;14565;48.626;8.978;2023-08-17T01:32:37;15.13;;;11.80;;
27025;SDS011;14565;48.626;8.978;2023-08-17T01:35:33;14.20;;;11.20;;
27025;SDS011;14565;48.626;8.978;2023-08-17T01:38:02;15.82;;;11.90;;
27025;SDS011;14565;48.626;8.978;2023-08-17T01:40:33;15.45;;;11.30;;
27025;SDS011;14565;48.626;8.978;2023-08-17T01:42:59;14.17;;;11.53;;
27025;SDS011;14565;48.626;8.978;2023-08-17T01:45:26;14.03;;;11.77;;
27025;SDS011;14565;48.626;8.978;2023-08-17T01:47:52;15.02;;;11.98;;
27025;SDS011;14565;48.626;8.978;2023-08-17T01:50:17;15.00;;;12.63;;
27025;SDS011;14565;48.626;8.978;2023-08-17T01:52:43;19.98;;;13.68;;
27025;SDS011;14565;48.626;8.978;2023-08-17T01:55:08;21.23;;;13.15;;
27025;SDS011;14565;48.626;8.978;2023-08-17T01:57:34;19.38;;;13.00;;
27025;SDS011;14565;48.626;8.978;2023-08-17T02:00:01;17.33;;;12.97;;
27025;SDS011;14565;48.626;8.978;2023-08-17T02:02:29;18.75;;;13.77;;
27025;SDS011;14565;48.626;8.978;2023-08-17T02:04:55;23.35;;;14.10;;
27025;SDS011;14565;48.626;8.978;2023-08-17T02:07:21;17.80;;;12.82;;
27025;SDS011;14565;48.626;8.978;2023-08-17T02:09:47;18.55;;;13.00;;
27025;SDS011;14565;48.626;8.978;2023-08-17T02:12:13;17.70;;;12.30;;
27025;SDS011;14565;48.626;8.978;2023-08-17T02:14:38;22.23;;;12.98;;
27025;SDS011;14565;48.626;8.978;2023-08-17T02:17:04;15.13;;;11.85;;
27025;SDS011;14565;48.626;8.978;2023-08-17T02:19:31;20.73;;;12.55;;
27025;SDS011;14565;48.626;8.978;2023-08-17T02:21:58;17.20;;;12.50;;
27025;SDS011;14565;48.626;8.978;2023-08-17T02:24:24;18.13;;;12.60;;
27025;SDS011;14565;48.626;8.978;2023-08-17T02:26:50;14.70;;;11.90;;
27025;SDS011;14565;48.626;8.978;2023-08-17T02:29:16;16.13;;;11.05;;
27025;SDS011;14565;48.626;8.978;2023-08-17T02:31:41;16.63;;;11.25;;
27025;SDS011;14565;48.626;8.978;2023-08-17T02:34:07;14.77;;;10.93;;
27025;SDS011;14565;48.626;8.978;2023-08-17T02:36:34;16.33;;;10.27;;
27025;SDS011;14565;48.626;8.978;2023-08-17T02:39:00;14.75;;;10.77;;
27025;SDS011;14565;48.626;8.978;2023-08-17T02:41:28;14.60;;;10.48;;
27025;SDS011;14565;48.626;8.978;2023-08-17T02:43:55;14.43;;;10.67;;
27025;SDS011;14565;48.626;8.978;2023-08-17T02:46:21;15.20;;;11.60;;
27025;SDS011;14565;48.626;8.978;2023-08-17T02:48:47;15.18;;;12.40;;
27025;SDS011;14565;48.626;8.978;2023-08-17T02:51:13;14.98;;;12.00;;
27025;SDS011;14565;48.626;8.978;2023-08-17T02:53:38;18.58;;;12.43;;
27025;SDS011;14565;48.626;8.978;2023-08-17T02:56:04;14.95;;;12.13;;
27025;SDS011;14565;48.626;8.978;2023-08-17T02:58:30;16.63;;;12.52;;
27025;SDS011;14565;48.626;8.978;2023-08-17T03:00:56;14.68;;;12.45;;
27025;SDS011;14565;48.626;8.978;2023-08-17T03:03:21;14.48;;;11.93;;
27025;SDS011;14565;48.626;8.978;2023-08-17T03:05:47;17.45;;;12.50;;
27025;SDS011;14565;48.626;8.978;2023-08-17T03:08:13;15.55;;;11.85;;
27025;SDS011;14565;48.626;8.978;2023-08-17T03:10:39;16.30;;;13.00;;
27025;SDS011;14565;48.626;8.978;2023-08-17T03:13:04;15.10;;;11.52;;
27025;SDS011;14565;48.626;8.978;2023-08-17T03:15:30;13.68;;;10.65;;
27025;SDS011;14565;48.626;8.978;2023-08-17T03:17:55;18.52;;;12.10;;
27025;SDS011;14565;48.626;8.978;2023-08-17T03:20:21;16.00;;;12.30;;
27025;SDS011;14565;48.626;8.978;2023-08-17T03:22:47;14.63;;;12.20;;
27025;SDS011;14565;48.626;8.978;2023-08-17T03:25:13;15.45;;;12.45;;
27025;SDS011;14565;48.626;8.978;2023-08-17T03:27:39;23.00;;;14.52;;
27025;SDS011;14565;48.626;8.978;2023-08-17T03:30:05;23.10;;;14.38;;
27025;SDS011;14565;48.626;8.978;2023-08-17T03:32:31;33.08;;;15.27;;
27025;SDS011;14565;48.626;8.978;2023-08-17T03:34:56;33.92;;;15.18;;
27025;SDS011;14565;48.626;8.978;2023-08-17T03:37:22;34.65;;;15.75;;
27025;SDS011;14565;48.626;8.978;2023-08-17T03:39:47;36.10;;;15.93;;
27025;SDS011;14565;48.626;8.978;2023-08-17T03:42:13;61.85;;;19.02;;
27025;SDS011;14565;48.626;8.978;2023-08-17T03:44:39;60.10;;;19.77;;
27025;SDS011;14565;48.626;8.978;2023-08-17T03:47:05;68.40;;;21.08;;
27025;SDS011;14565;48.626;8.978;2023-08-17T03:49:36;48.20;;;20.65;;
27025;SDS011;14565;48.626;8.978;2023-08-17T03:52:04;51.63;;;22.27;;
27025;SDS011;14565;48.626;8.978;2023-08-17T03:54:32;54.13;;;22.63;;
27025;SDS011;14565;48.626;8.978;2023-08-17T03:57:03;49.45;;;21.17;;
27025;SDS011;14565;48.626;8.978;2023-08-17T03:59:33;51.17;;;19.58;;
27025;SDS011;14565;48.626;8.978;2023-08-17T04:02:03;44.28;;;21.83;;
27025;SDS011;14565;48.626;8.978;2023-08-17T04:04:37;45.58;;;22.23;;
27025;SDS011;14565;48.626;8.978;2023-08-17T04:07:05;50.13;;;20.98;;
27025;SDS011;14565;48.626;8.978;2023-08-17T04:09:43;58.97;;;21.60;;
27025;SDS011;14565;48.626;8.978;2023-08-17T04:12:12;79.03;;;20.80;;
27025;SDS011;14565;48.626;8.978;2023-08-17T04:17:08;37.92;;;16.52;;
27025;SDS011;14565;48.626;8.978;2023-08-17T04:19:40;39.83;;;18.63;;
27025;SDS011;14565;48.626;8.978;2023-08-17T04:22:08;98.65;;;19.98;;
27025;SDS011;14565;48.626;8.978;2023-08-17T04:24:39;82.72;;;20.05;;
27025;SDS011;14565;48.626;8.978;2023-08-17T04:27:07;52.38;;;18.60;;
27025;SDS011;14565;48.626;8.978;2023-08-17T04:32:01;132.00;;;19.63;;
27025;SDS011;14565;48.626;8.978;2023-08-17T04:34:35;125.00;;;19.02;;
27025;SDS011;14565;48.626;8.978;2023-08-17T04:37:03;56.00;;;18.00;;
27025;SDS011;14565;48.626;8.978;2023-08-17T04:39:28;96.45;;;20.13;;
27025;SDS011;14565;48.626;8.978;2023-08-17T04:41:54;100.50;;;20.05;;
27025;SDS011;14565;48.626;8.978;2023-08-17T04:44:20;100.53;;;19.30;;
27025;SDS011;14565;48.626;8.978;2023-08-17T04:46:46;137.93;;;19.77;;
27025;SDS011;14565;48.626;8.978;2023-08-17T04:49:11;79.50;;;18.90;;
27025;SDS011;14565;48.626;8.978;2023-08-17T04:51:37;99.60;;;18.30;;
27025;SDS011;14565;48.626;8.978;2023-08-17T04:54:03;76.57;;;19.35;;
27025;SDS011;14565;48.626;8.978;2023-08-17T04:56:28;147.23;;;20.85;;
27025;SDS011;14565;48.626;8.978;2023-08-17T04:58:54;90.43;;;18.08;;
27025;SDS011;14565;48.626;8.978;2023-08-17T05:01:20;122.93;;;18.38;;
27025;SDS011;14565;48.626;8.978;2023-08-17T05:03:45;55.25;;;17.75;;
27025;SDS011;14565;48.626;8.978;2023-08-17T05:06:11;85.50;;;19.13;;
27025;SDS011;14565;48.626;8.978;2023-08-17T05:08:36;62.30;;;17.90;;
27025;SDS011;14565;48.626;8.978;2023-08-17T05:11:02;76.45;;;17.35;;
27025;SDS011;14565;48.626;8.978;2023-08-17T05:13:28;36.38;;;15.48;;
27025;SDS011;14565;48.626;8.978;2023-08-17T05:15:53;33.13;;;15.88;;
27025;SDS011;14565;48.626;8.978;2023-08-17T05:18:19;59.85;;;15.05;;
27025;SDS011;14565;48.626;8.978;2023-08-17T05:20:45;42.65;;;15.98;;
27025;SDS011;14565;48.626;8.978;2023-08-17T05:23:10;84.13;;;15.88;;
27025;SDS011;14565;48.626;8.978;2023-08-17T05:25:36;42.17;;;15.63;;
27025;SDS011;14565;48.626;8.978;2023-08-17T05:28:01;73.03;;;15.55;;
27025;SDS011;14565;48.626;8.978;2023-08-17T05:30:27;31.95;;;14.13;;
27025;SDS011;14565;48.626;8.978;2023-08-17T05:32:53;28.92;;;13.77;;
27025;SDS011;14565;48.626;8.978;2023-08-17T05:35:19;73.40;;;14.80;;
27025;SDS011;14565;48.626;8.978;2023-08-17T05:37:44;71.97;;;12.98;;
27025;SDS011;14565;48.626;8.978;2023-08-17T05:40:10;57.38;;;14.35;;
27025;SDS011;14565;48.626;8.978;2023-08-17T05:42:36;44.55;;;13.18;;
27025;SDS011;14565;48.626;8.978;2023-08-17T05:45:02;50.13;;;12.55;;
27025;SDS011;14565;48.626;8.978;2023-08-17T05:47:28;29.30;;;12.25;;
27025;SDS011;14565;48.626;8.978;2023-08-17T05:49:53;65.32;;;12.13;;
27025;SDS011;14565;48.626;8.978;2023-08-17T05:52:19;40.75;;;13.70;;
27025;SDS011;14565;48.626;8.978;2023-08-17T05:54:45;51.97;;;12.70;;
27025;SDS011;14565;48.626;8.978;2023-08-17T05:57:10;90.47;;;13.85;;
27025;SDS011;14565;48.626;8.978;2023-08-17T05:59:36;39.17;;;14.13;;
27025;SDS011;14565;48.626;8.978;2023-08-17T06:02:01;47.38;;;14.38;;
27025;SDS011;14565;48.626;8.978;2023-08-17T06:04:27;37.03;;;14.40;;
27025;SDS011;14565;48.626;8.978;2023-08-17T06:06:53;65.72;;;13.55;;
27025;SDS011;14565;48.626;8.978;2023-08-17T06:09:18;23.75;;;12.68;;
27025;SDS011;14565;48.626;8.978;2023-08-17T06:11:44;47.92;;;13.27;;
27025;SDS011;14565;48.626;8.978;2023-08-17T06:14:10;30.35;;;13.23;;
27025;SDS011;14565;48.626;8.978;2023-08-17T06:16:35;54.28;;;12.68;;
27025;SDS011;14565;48.626;8.978;2023-08-17T06:19:01;32.75;;;12.68;;
27025;SDS011;14565;48.626;8.978;2023-08-17T06:21:27;30.40;;;12.05;;
27025;SDS011;14565;48.626;8.978;2023-08-17T06:23:53;50.40;;;12.77;;
27025;SDS011;14565;48.626;8.978;2023-08-17T06:26:18;45.42;;;12.57;;
27025;SDS011;14565;48.626;8.978;2023-08-17T06:28:44;32.35;;;11.98;;
27025;SDS011;14565;48.626;8.978;2023-08-17T06:31:10;44.30;;;12.73;;
27025;SDS011;14565;48.626;8.978;2023-08-17T06:33:39;26.10;;;12.60;;
27025;SDS011;14565;48.626;8.978;2023-08-17T06:36:04;23.30;;;11.80;;
27025;SDS011;14565;48.626;8.978;2023-08-17T06:38:30;34.88;;;11.82;;
27025;SDS011;14565;48.626;8.978;2023-08-17T06:40:56;19.00;;;11.23;;
27025;SDS011;14565;48.626;8.978;2023-08-17T06:43:21;17.52;;;10.68;;
27025;SDS011;14565;48.626;8.978;2023-08-17T06:45:47;10.88;;;9.48;;
27025;SDS011;14565;48.626;8.978;2023-08-17T06:48:13;8.18;;;7.25;;
27025;SDS011;14565;48.626;8.978;2023-08-17T06:50:38;11.10;;;7.72;;
27025;SDS011;14565;48.626;8.978;2023-08-17T06:53:04;9.48;;;7.28;;
27025;SDS011;14565;48.626;8.978;2023-08-17T06:55:30;9.20;;;6.97;;
27025;SDS011;14565;48.626;8.978;2023-08-17T06:57:56;7.55;;;6.75;;
27025;SDS011;14565;48.626;8.978;2023-08-17T07:00:22;8.38;;;7.45;;
27025;SDS011;14565;48.626;8.978;2023-08-17T07:02:48;9.77;;;7.65;;
27025;SDS011;14565;48.626;8.978;2023-08-17T07:05:17;14.50;;;7.30;;
27025;SDS011;14565;48.626;8.978;2023-08-17T07:07:43;8.23;;;7.35;;
27025;SDS011;14565;48.626;8.978;2023-08-17T07:10:09;8.68;;;7.10;;
27025;SDS011;14565;48.626;8.978;2023-08-17T07:12:36;10.82;;;7.07;;
27025;SDS011;14565;48.626;8.978;2023-08-17T07:15:02;9.27;;;7.38;;
27025;SDS011;14565;48.626;8.978;2023-08-17T07:17:29;8.30;;;6.90;;
27025;SDS011;14565;48.626;8.978;2023-08-17T07:19:55;8.93;;;8.02;;
27025;SDS011;14565;48.626;8.978;2023-08-17T07:22:20;10.20;;;8.50;;
27025;SDS011;14565;48.626;8.978;2023-08-17T07:24:46;8.98;;;7.47;;
27025;SDS011;14565;48.626;8.978;2023-08-17T07:27:11;8.75;;;7.82;;
27025;SDS011;14565;48.626;8.978;2023-08-17T07:29:37;11.80;;;7.95;;
27025;SDS011;14565;48.626;8.978;2023-08-17T07:32:03;10.75;;;8.15;;
27025;SDS011;14565;48.626;8.978;2023-08-17T07:34:29;8.25;;;7.28;;
27025;SDS011;14565;48.626;8.978;2023-08-17T07:36:56;9.43;;;7.63;;
27025;SDS011;14565;48.626;8.978;2023-08-17T07:39:22;9.93;;;7.80;;
27025;SDS011;14565;48.626;8.978;2023-08-17T07:41:48;7.78;;;6.97;;
27025;SDS011;14565;48.626;8.978;2023-08-17T07:44:13;8.30;;;7.03;;
27025;SDS011;14565;48.626;8.978;2023-08-17T07:46:39;8.25;;;7.32;;
27025;SDS011;14565;48.626;8.978;2023-08-17T07:49:05;8.50;;;7.65;;
27025;SDS011;14565;48.626;8.978;2023-08-17T07:51:31;8.43;;;7.47;;
27025;SDS011;14565;48.626;8.978;2023-08-17T07:53:59;8.02;;;6.63;;
27025;SDS011;14565;48.626;8.978;2023-08-17T07:56:25;9.02;;;6.75;;
27025;SDS011;14565;48.626;8.978;2023-08-17T07:58:51;7.95;;;7.03;;
27025;SDS011;14565;48.626;8.978;2023-08-17T08:01:18;7.40;;;6.28;;
27025;SDS011;14565;48.626;8.978;2023-08-17T08:03:43;8.00;;;6.97;;
27025;SDS011;14565;48.626;8.978;2023-08-17T08:06:09;8.38;;;7.47;;
27025;SDS011;14565;48.626;8.978;2023-08-17T08:08:35;7.85;;;6.90;;
27025;SDS011;14565;48.626;8.978;2023-08-17T08:11:00;7.60;;;6.90;;
27025;SDS011;14565;48.626;8.978;2023-08-17T08:13:26;8.60;;;6.60;;
27025;SDS011;14565;48.626;8.978;2023-08-17T08:15:52;8.00;;;7.20;;
27025;SDS011;14565;48.626;8.978;2023-08-17T08:18:17;6.97;;;6.28;;
27025;SDS011;14565;48.626;8.978;2023-08-17T08:20:43;6.57;;;5.88;;
27025;SDS011;14565;48.626;8.978;2023-08-17T08:23:09;6.75;;;6.10;;
27025;SDS011;14565;48.626;8.978;2023-08-17T08:25:34;7.65;;;5.85;;
27025;SDS011;14565;48.626;8.978;2023-08-17T08:28:00;5.40;;;4.90;;
27025;SDS011;14565;48.626;8.978;2023-08-17T08:30:26;5.28;;;4.78;;
27025;SDS011;14565;48.626;8.978;2023-08-17T08:32:51;5.90;;;5.30;;
27025;SDS011;14565;48.626;8.978;2023-08-17T08:35:17;5.88;;;4.97;;
27025;SDS011;14565;48.626;8.978;2023-08-17T08:37:42;5.72;;;4.97;;
27025;SDS011;14565;48.626;8.978;2023-08-17T08:40:12;5.05;;;4.55;;
27025;SDS011;14565;48.626;8.978;2023-08-17T08:42:38;8.45;;;4.88;;
27025;SDS011;14565;48.626;8.978;2023-08-17T08:45:04;5.85;;;5.25;;
27025;SDS011;14565;48.626;8.978;2023-08-17T08:47:30;6.00;;;5.35;;
27025;SDS011;14565;48.626;8.978;2023-08-17T08:49:59;6.28;;;5.45;;
27025;SDS011;14565;48.626;8.978;2023-08-17T08:55:17;6.38;;;4.35;;
27025;SDS011;14565;48.626;8.978;2023-08-17T08:57:43;6.40;;;4.70;;
27025;SDS011;14565;48.626;8.978;2023-08-17T09:00:11;7.10;;;4.57;;
27025;SDS011;14565;48.626;8.978;2023-08-17T09:02:37;7.15;;;4.40;;
27025;SDS011;14565;48.626;8.978;2023-08-17T09:05:04;5.47;;;4.97;;
27025;SDS011;14565;48.626;8.978;2023-08-17T09:09:57;5.35;;;4.68;;
27025;SDS011;14565;48.626;8.978;2023-08-17T09:12:24;6.60;;;4.90;;
27025;SDS011;14565;48.626;8.978;2023-08-17T09:14:50;6.55;;;4.10;;
27025;SDS011;14565;48.626;8.978;2023-08-17T09:17:26;6.07;;;4.78;;
27025;SDS011;14565;48.626;8.978;2023-08-17T09:19:52;7.00;;;4.97;;
27025;SDS011;14565;48.626;8.978;2023-08-17T09:22:26;5.68;;;4.72;;
27025;SDS011;14565;48.626;8.978;2023-08-17T09:25:04;5.65;;;5.00;;
27025;SDS011;14565;48.626;8.978;2023-08-17T09:27:31;5.60;;;5.10;;
27025;SDS011;14565;48.626;8.978;2023-08-17T09:30:10;6.57;;;4.95;;
27025;SDS011;14565;48.626;8.978;2023-08-17T09:32:36;5.65;;;4.63;;
27025;SDS011;14565;48.626;8.978;2023-08-17T09:35:02;5.57;;;4.38;;
27025;SDS011;14565;48.626;8.978;2023-08-17T09:37:30;5.25;;;4.43;;
27025;SDS011;14565;48.626;8.978;2023-08-17T09:39:56;6.65;;;4.60;;
27025;SDS011;14565;48.626;8.978;2023-08-17T09:42:22;6.78;;;4.43;;
27025;SDS011;14565;48.626;8.978;2023-08-17T09:44:49;8.95;;;5.15;;
27025;SDS011;14565;48.626;8.978;2023-08-17T09:47:16;4.80;;;4.38;;
27025;SDS011;14565;48.626;8.978;2023-08-17T09:49:47;12.07;;;4.85;;
27025;SDS011;14565;48.626;8.978;2023-08-17T09:52:18;5.20;;;4.70;;
27025;SDS011;14565;48.626;8.978;2023-08-17T09:54:45;5.25;;;4.75;;
27025;SDS011;14565;48.626;8.978;2023-08-17T09:57:12;8.73;;;4.72;;
27025;SDS011;14565;48.626;8.978;2023-08-17T09:59:38;7.05;;;5.28;;
27025;SDS011;14565;48.626;8.978;2023-08-17T10:02:04;5.22;;;4.45;;
27025;SDS011;14565;48.626;8.978;2023-08-17T10:04:38;4.97;;;4.47;;
27025;SDS011;14565;48.626;8.978;2023-08-17T10:07:04;5.45;;;4.95;;
27025;SDS011;14565;48.626;8.978;2023-08-17T10:09:35;6.00;;;4.40;;
27025;SDS011;14565;48.626;8.978;2023-08-17T10:12:06;6.32;;;4.55;;
27025;SDS011;14565;48.626;8.978;2023-08-17T10:14:39;5.13;;;4.25;;
27025;SDS011;14565;48.626;8.978;2023-08-17T10:17:12;5.18;;;4.68;;
27025;SDS011;14565;48.626;8.978;2023-08-17T10:19:51;6.60;;;4.65;;
27025;SDS011;14565;48.626;8.978;2023-08-17T10:22:25;4.95;;;4.45;;
27025;SDS011;14565;48.626;8.978;2023-08-17T10:24:56;6.07;;;4.72;;
27025;SDS011;14565;48.626;8.978;2023-08-17T10:27:24;7.05;;;4.78;;
27025;SDS011;14565;48.626;8.978;2023-08-17T10:29:51;6.37;;;5.00;;
27025;SDS011;14565;48.626;8.978;2023-08-17T10:32:18;5.25;;;4.80;;
27025;SDS011;14565;48.626;8.978;2023-08-17T10:34:46;5.13;;;4.68;;
27025;SDS011;14565;48.626;8.978;2023-08-17T10:37:12;5.15;;;4.65;;
27025;SDS011;14565;48.626;8.978;2023-08-17T10:39:44;5.22;;;4.75;;
27025;SDS011;14565;48.626;8.978;2023-08-17T10:42:12;6.00;;;5.22;;
27025;SDS011;14565;48.626;8.978;2023-08-17T10:44:46;6.45;;;5.00;;
27025;SDS011;14565;48.626;8.978;2023-08-17T10:47:18;7.53;;;5.38;;
27025;SDS011;14565;48.626;8.978;2023-08-17T10:49:45;5.65;;;4.97;;
27025;SDS011;14565;48.626;8.978;2023-08-17T10:52:14;5.85;;;5.25;;
27025;SDS011;14565;48.626;8.978;2023-08-17T10:54:40;7.15;;;5.68;;
27025;SDS011;14565;48.626;8.978;2023-08-17T11:00:17;7.82;;;5.38;;
27025;SDS011;14565;48.626;8.978;2023-08-17T11:02:45;6.25;;;5.60;;
27025;SDS011;14565;48.626;8.978;2023-08-17T11:11:04;5.40;;;4.90;;
27025;SDS011;14565;48.626;8.978;2023-08-17T11:13:34;5.38;;;4.75;;
27025;SDS011;14565;48.626;8.978;2023-08-17T11:16:04;5.60;;;5.07;;
27025;SDS011;14565;48.626;8.978;2023-08-17T11:18:31;7.75;;;6.47;;
27025;SDS011;14565;48.626;8.978;2023-08-17T11:20:57;11.57;;;5.72;;
27025;SDS011;14565;48.626;8.978;2023-08-17T11:23:24;6.43;;;4.72;;
27025;SDS011;14565;48.626;8.978;2023-08-17T11:25:52;8.82;;;4.65;;
27025;SDS011;14565;48.626;8.978;2023-08-17T11:28:18;5.95;;;4.93;;
27025;SDS011;14565;48.626;8.978;2023-08-17T11:30:44;5.68;;;5.03;;
27025;SDS011;14565;48.626;8.978;2023-08-17T11:33:10;4.90;;;4.50;;
27025;SDS011;14565;48.626;8.978;2023-08-17T11:35:36;7.10;;;5.20;;
27025;SDS011;14565;48.626;8.978;2023-08-17T11:38:03;5.60;;;4.83;;
27025;SDS011;14565;48.626;8.978;2023-08-17T11:40:30;6.72;;;5.13;;
27025;SDS011;14565;48.626;8.978;2023-08-17T11:42:56;7.65;;;4.75;;
27025;SDS011;14565;48.626;8.978;2023-08-17T11:45:23;4.80;;;4.15;;
27025;SDS011;14565;48.626;8.978;2023-08-17T11:47:48;4.95;;;4.20;;
27025;SDS011;14565;48.626;8.978;2023-08-17T11:50:14;7.43;;;4.30;;
27025;SDS011;14565;48.626;8.978;2023-08-17T11:52:40;7.97;;;5.65;;
27025;SDS011;14565;48.626;8.978;2023-08-17T11:55:06;5.50;;;4.72;;
27025;SDS011;14565;48.626;8.978;2023-08-17T11:57:35;5.22;;;4.72;;
27025;SDS011;14565;48.626;8.978;2023-08-17T12:00:02;5.53;;;5.03;;
27025;SDS011;14565;48.626;8.978;2023-08-17T12:02:31;5.05;;;4.55;;
27025;SDS011;14565;48.626;8.978;2023-08-17T12:04:56;6.30;;;4.65;;
27025;SDS011;14565;48.626;8.978;2023-08-17T12:07:25;6.22;;;4.60;;
27025;SDS011;14565;48.626;8.978;2023-08-17T12:09:51;7.90;;;4.63;;
27025;SDS011;14565;48.626;8.978;2023-08-17T12:12:27;6.00;;;5.00;;
27025;SDS011;14565;48.626;8.978;2023-08-17T12:14:53;5.75;;;4.85;;
27025;SDS011;14565;48.626;8.978;2023-08-17T12:17:19;6.25;;;4.72;;
27025;SDS011;14565;48.626;8.978;2023-08-17T12:19:49;5.50;;;5.00;;
27025;SDS011;14565;48.626;8.978;2023-08-17T12:22:18;7.38;;;5.25;;
27025;SDS011;14565;48.626;8.978;2023-08-17T12:24:44;5.10;;;4.60;;
27025;SDS011;14565;48.626;8.978;2023-08-17T12:27:10;5.53;;;5.05;;
27025;SDS011;14565;48.626;8.978;2023-08-17T12:29:49;7.15;;;5.38;;
27025;SDS011;14565;48.626;8.978;2023-08-17T12:32:19;5.10;;;4.60;;
27025;SDS011;14565;48.626;8.978;2023-08-17T12:34:45;8.45;;;5.30;;
27025;SDS011;14565;48.626;8.978;2023-08-17T12:37:12;7.47;;;5.30;;
27025;SDS011;14565;48.626;8.978;2023-08-17T12:39:43;6.65;;;4.90;;
27025;SDS011;14565;48.626;8.978;2023-08-17T12:42:08;5.95;;;5.10;;
27025;SDS011;14565;48.626;8.978;2023-08-17T12:44:34;6.45;;;4.80;;
27025;SDS011;14565;48.626;8.978;2023-08-17T12:47:00;9.25;;;5.85;;
27025;SDS011;14565;48.626;8.978;2023-08-17T12:49:25;8.30;;;5.50;;
27025;SDS011;14565;48.626;8.978;2023-08-17T12:51:51;8.60;;;4.97;;
27025;SDS011;14565;48.626;8.978;2023-08-17T12:54:17;17.02;;;6.05;;
27025;SDS011;14565;48.626;8.978;2023-08-17T12:56:43;6.43;;;4.63;;
27025;SDS011;14565;48.626;8.978;2023-08-17T12:59:09;8.98;;;4.63;;
27025;SDS011;14565;48.626;8.978;2023-08-17T13:01:35;8.93;;;4.80;;
27025;SDS011;14565;48.626;8.978;2023-08-17T13:04:01;5.28;;;4.63;;
27025;SDS011;14565;48.626;8.978;2023-08-17T13:06:27;4.60;;;4.20;;
27025;SDS011;14565;48.626;8.978;2023-08-17T13:08:52;5.78;;;4.30;;
27025;SDS011;14565;48.626;8.978;2023-08-17T13:11:18;7.95;;;5.22;;
27025;SDS011;14565;48.626;8.978;2023-08-17T13:13:44;11.10;;;5.05;;
27025;SDS011;14565;48.626;8.978;2023-08-17T13:16:09;5.78;;;4.38;;
27025;SDS011;14565;48.626;8.978;2023-08-17T13:18:38;7.00;;;4.07;;
27025;SDS011;14565;48.626;8.978;2023-08-17T13:21:04;6.35;;;4.40;;
27025;SDS011;14565;48.626;8.978;2023-08-17T13:23:29;4.57;;;4.10;;
27025;SDS011;14565;48.626;8.978;2023-08-17T13:25:55;5.07;;;4.00;;
27025;SDS011;14565;48.626;8.978;2023-08-17T13:28:21;4.40;;;3.67;;
27025;SDS011;14565;48.626;8.978;2023-08-17T13:30:46;7.05;;;3.83;;
27025;SDS011;14565;48.626;8.978;2023-08-17T13:33:12;7.20;;;3.22;;
27025;SDS011;14565;48.626;8.978;2023-08-17T13:35:38;5.50;;;3.20;;
27025;SDS011;14565;48.626;8.978;2023-08-17T13:38:04;7.35;;;3.30;;
27025;SDS011;14565;48.626;8.978;2023-08-17T13:40:30;6.63;;;3.20;;
27025;SDS011;14565;48.626;8.978;2023-08-17T13:42:56;4.38;;;3.30;;
27025;SDS011;14565;48.626;8.978;2023-08-17T13:45:25;7.43;;;3.78;;
27025;SDS011;14565;48.626;8.978;2023-08-17T13:47:51;3.90;;;3.30;;
27025;SDS011;14565;48.626;8.978;2023-08-17T13:50:17;4.75;;;3.10;;
27025;SDS011;14565;48.626;8.978;2023-08-17T13:52:43;6.20;;;3.80;;
27025;SDS011;14565;48.626;8.978;2023-08-17T13:55:09;4.78;;;3.78;;
27025;SDS011;14565;48.626;8.978;2023-08-17T13:57:35;5.43;;;3.10;;
27025;SDS011;14565;48.626;8.978;2023-08-17T14:00:01;9.23;;;3.42;;
27025;SDS011;14565;48.626;8.978;2023-08-17T14:04:54;6.68;;;3.72;;
27025;SDS011;14565;48.626;8.978;2023-08-17T14:07:20;8.07;;;3.90;;
27025;SDS011;14565;48.626;8.978;2023-08-17T14:09:46;7.35;;;3.80;;
27025;SDS011;14565;48.626;8.978;2023-08-17T14:12:11;10.75;;;4.25;;
27025;SDS011;14565;48.626;8.978;2023-08-17T14:14:38;8.15;;;4.05;;
27025;SDS011;14565;48.626;8.978;2023-08-17T14:17:04;8.38;;;4.90;;
27025;SDS011;14565;48.626;8.978;2023-08-17T14:19:29;9.85;;;6.25;;
27025;SDS011;14565;48.626;8.978;2023-08-17T14:21:56;11.82;;;6.85;;
27025;SDS011;14565;48.626;8.978;2023-08-17T14:26:50;10.65;;;8.30;;
27025;SDS011;14565;48.626;8.978;2023-08-17T14:29:15;11.00;;;8.38;;
27025;SDS011;14565;48.626;8.978;2023-08-17T14:31:41;12.93;;;7.55;;
27025;SDS011;14565;48.626;8.978;2023-08-17T14:34:06;12.00;;;8.27;;
27025;SDS011;14565;48.626;8.978;2023-08-17T14:36:32;10.48;;;7.88;;
27025;SDS011;14565;48.626;8.978;2023-08-17T14:38:58;14.35;;;8.18;;
27025;SDS011;14565;48.626;8.978;2023-08-17T14:41:24;14.55;;;7.93;;
27025;SDS011;14565;48.626;8.978;2023-08-17T14:43:56;13.27;;;8.77;;
27025;SDS011;14565;48.626;8.978;2023-08-17T14:46:22;11.88;;;8.32;;
27025;SDS011;14565;48.626;8.978;2023-08-17T14:48:48;10.25;;;8.23;;
27025;SDS011;14565;48.626;8.978;2023-08-17T14:51:13;11.35;;;8.93;;
27025;SDS011;14565;48.626;8.978;2023-08-17T14:53:39;14.38;;;9.10;;
27025;SDS011;14565;48.626;8.978;2023-08-17T14:56:05;13.38;;;8.80;;
27025;SDS011;14565;48.626;8.978;2023-08-17T14:58:30;11.35;;;7.82;;